createdAt,value
2023-09-21T00:01:13.593Z,98278.66
2023-09-21T00:03:41.078Z,98267.00
2023-09-21T00:06:08.219Z,98269.91
2023-09-21T00:08:35.520Z,98239.91
2023-09-21T00:11:05.453Z,98265.69
2023-09-21T00:13:33.259Z,98247.00
2023-09-21T00:16:03.638Z,98257.16
2023-09-21T00:18:40.621Z,98255.50
2023-09-21T00:21:07.664Z,98260.44
2023-09-21T00:23:34.530Z,98257.34
2023-09-21T00:26:01.806Z,98262.47
2023-09-21T00:28:29.812Z,98255.56
2023-09-21T00:30:59.039Z,98249.13
2023-09-21T00:33:27.056Z,98253.41
2023-09-21T00:35:54.594Z,98245.09
2023-09-21T00:38:24.134Z,98249.22
2023-09-21T00:40:51.188Z,98243.44
2023-09-21T00:43:22.564Z,98233.56
2023-09-21T00:45:53.066Z,98230.09
2023-09-21T00:48:24.232Z,98235.91
2023-09-21T00:50:52.561Z,98231.63
2023-09-21T00:53:19.504Z,98201.88
2023-09-21T00:55:51.665Z,98217.81
2023-09-21T00:58:19.752Z,98211.91
2023-09-21T01:00:47.616Z,98211.63
2023-09-21T01:03:15.442Z,98218.66
2023-09-21T01:05:46.594Z,98191.06
2023-09-21T01:08:18.780Z,98221.41
2023-09-21T01:10:50.984Z,98219.47
2023-09-21T01:13:18.802Z,98217.84
2023-09-21T01:15:46.798Z,98222.94
2023-09-21T01:18:14.500Z,98212.78
2023-09-21T01:20:45.713Z,98213.59
2023-09-21T01:23:20.430Z,98207.00
2023-09-21T01:25:52.105Z,98202.13
2023-09-21T01:28:20.761Z,98216.53
2023-09-21T01:30:49.016Z,98196.50
2023-09-21T01:33:19.113Z,98198.84
2023-09-21T01:35:46.943Z,98208.22
2023-09-21T01:38:14.990Z,98201.66
2023-09-21T01:40:43.196Z,98211.50
2023-09-21T01:43:16.500Z,98190.69
2023-09-21T01:45:45.851Z,98199.22
2023-09-21T01:48:16.605Z,98191.31
2023-09-21T01:50:47.095Z,98187.06
2023-09-21T01:53:14.814Z,98188.50
2023-09-21T01:55:42.722Z,98186.72
2023-09-21T01:58:12.969Z,98192.47
2023-09-21T02:00:41.343Z,98177.69
2023-09-21T02:03:14.217Z,98149.63
2023-09-21T02:05:42.228Z,98169.97
2023-09-21T02:08:13.000Z,98170.13
2023-09-21T02:10:41.814Z,98173.41
2023-09-21T02:13:09.216Z,98176.19
2023-09-21T02:15:40.945Z,98175.72
2023-09-21T02:18:11.562Z,98168.19
2023-09-21T02:20:47.131Z,98159.63
2023-09-21T02:23:13.991Z,98167.97
2023-09-21T02:25:41.615Z,98156.69
2023-09-21T02:28:15.805Z,98090.38
2023-09-21T02:30:44.375Z,98154.03
2023-09-21T02:33:11.514Z,98162.59
2023-09-21T02:35:45.886Z,98158.63
2023-09-21T02:38:13.534Z,98150.75
2023-09-21T02:40:44.163Z,98159.13
2023-09-21T02:43:11.027Z,98149.09
2023-09-21T02:45:38.398Z,98132.88
2023-09-21T02:48:06.790Z,98151.44
2023-09-21T02:50:34.237Z,98148.94
2023-09-21T02:53:07.868Z,98145.66
2023-09-21T02:55:36.854Z,98144.19
2023-09-21T02:58:12.204Z,98134.50
2023-09-21T03:00:44.252Z,98139.25
2023-09-21T03:03:16.595Z,98112.03
2023-09-21T03:05:49.188Z,98134.69
2023-09-21T03:08:17.849Z,98132.22
2023-09-21T03:10:45.907Z,98137.47
2023-09-21T03:13:14.492Z,98130.06
2023-09-21T03:15:41.694Z,98135.34
2023-09-21T03:18:13.365Z,98122.72
2023-09-21T03:20:45.211Z,98132.41
2023-09-21T03:23:14.066Z,98128.44
2023-09-21T03:25:45.130Z,98124.19
2023-09-21T03:28:16.280Z,98127.28
2023-09-21T03:30:51.830Z,98121.56
2023-09-21T03:33:20.696Z,98123.69
2023-09-21T03:35:47.989Z,98119.91
2023-09-21T03:38:14.840Z,98118.28
2023-09-21T03:40:43.025Z,98117.47
2023-09-21T03:43:14.266Z,98106.13
2023-09-21T03:45:45.778Z,98108.75
2023-09-21T03:48:14.119Z,98086.41
2023-09-21T03:50:42.825Z,98111.03
2023-09-21T03:53:11.137Z,98094.31
2023-09-21T03:55:47.791Z,98073.81
2023-09-21T03:58:16.171Z,98091.03
2023-09-21T04:00:43.174Z,98074.25
2023-09-21T04:03:11.821Z,98095.47
2023-09-21T04:05:41.797Z,98091.19
2023-09-21T04:08:09.862Z,98091.19
2023-09-21T04:10:41.747Z,98068.34
2023-09-21T04:13:08.538Z,98068.19
2023-09-21T04:15:35.646Z,98083.09
2023-09-21T04:18:03.618Z,98079.19
2023-09-21T04:20:36.692Z,98075.06
2023-09-21T04:23:04.417Z,98081.31
2023-09-21T04:25:31.647Z,98079.84
2023-09-21T04:27:58.421Z,98075.75
2023-09-21T04:30:25.817Z,98069.69
2023-09-21T04:32:54.848Z,98082.47
2023-09-21T04:35:22.362Z,98072.13
2023-09-21T04:37:52.733Z,98073.44
2023-09-21T04:40:19.962Z,98083.09
2023-09-21T04:42:48.626Z,98079.66
2023-09-21T04:45:20.252Z,98078.84
2023-09-21T04:47:50.619Z,98082.47
2023-09-21T04:50:19.414Z,98082.13
2023-09-21T04:52:52.064Z,98072.78
2023-09-21T04:55:20.008Z,98029.63
2023-09-21T04:57:47.447Z,98062.94
2023-09-21T05:00:16.443Z,98067.38
2023-09-21T05:02:44.883Z,98066.88
2023-09-21T05:05:12.608Z,98061.94
2023-09-21T05:07:39.330Z,98043.06
2023-09-21T05:10:08.652Z,98062.44
2023-09-21T05:12:35.913Z,98050.13
2023-09-21T05:15:08.023Z,98057.34
2023-09-21T05:17:37.859Z,98063.41
2023-09-21T05:20:08.119Z,98063.94
2023-09-21T05:22:35.301Z,98061.31
2023-09-21T05:25:04.891Z,98059.34
2023-09-21T05:27:31.822Z,98062.09
2023-09-21T05:30:00.870Z,98062.94
2023-09-21T05:32:31.217Z,98060.47
2023-09-21T05:35:00.160Z,98045.84
2023-09-21T05:37:26.845Z,98062.59
2023-09-21T05:39:53.933Z,98055.72
2023-09-21T05:42:20.663Z,98059.81
2023-09-21T05:44:47.527Z,98061.16
2023-09-21T05:47:14.410Z,98057.84
2023-09-21T05:49:41.386Z,98060.00
2023-09-21T05:52:13.761Z,98057.69
2023-09-21T05:54:43.564Z,98053.41
2023-09-21T05:57:10.807Z,98041.75
2023-09-21T05:59:38.000Z,98039.50
2023-09-21T06:02:06.597Z,98043.28
2023-09-21T06:04:35.746Z,98038.16
2023-09-21T06:07:04.361Z,98046.69
2023-09-21T06:09:31.038Z,98046.03
2023-09-21T06:11:58.051Z,98042.91
2023-09-21T06:14:24.885Z,98027.31
2023-09-21T06:16:53.312Z,98028.94
2023-09-21T06:19:20.634Z,98043.91
2023-09-21T06:21:49.530Z,97997.44
2023-09-21T06:24:16.968Z,98038.69
2023-09-21T06:26:44.179Z,98029.28
2023-09-21T06:29:12.193Z,98032.84
2023-09-21T06:31:39.124Z,98024.59
2023-09-21T06:34:13.402Z,98017.47
2023-09-21T06:36:39.966Z,98021.06
2023-09-21T06:39:07.664Z,98025.63
2023-09-21T06:41:34.883Z,98016.88
2023-09-21T06:44:01.636Z,98010.56
2023-09-21T06:46:28.470Z,98013.59
2023-09-21T06:48:58.276Z,98008.72
2023-09-21T06:51:26.741Z,98013.47
2023-09-21T06:53:53.545Z,98017.97
2023-09-21T06:56:22.746Z,98022.09
2023-09-21T06:58:49.675Z,98024.00
2023-09-21T07:01:16.447Z,98022.19
2023-09-21T07:03:45.060Z,98015.47
2023-09-21T07:06:13.326Z,98011.91
2023-09-21T07:08:40.519Z,97999.09
2023-09-21T07:11:07.367Z,98011.66
2023-09-21T07:13:34.148Z,98014.22
2023-09-21T07:16:00.962Z,98017.47
2023-09-21T07:18:28.630Z,98016.22
2023-09-21T07:20:55.721Z,98007.72
2023-09-21T07:23:22.914Z,97997.97
2023-09-21T07:25:50.461Z,98002.31
2023-09-21T07:28:17.683Z,97985.09
2023-09-21T07:30:44.566Z,97996.97
2023-09-21T07:33:11.451Z,97995.03
2023-09-21T07:35:38.692Z,97990.50
2023-09-21T07:38:05.447Z,98006.84
2023-09-21T07:40:32.983Z,97998.22
2023-09-21T07:42:59.777Z,97989.19
2023-09-21T07:45:27.038Z,97970.75
2023-09-21T07:47:55.970Z,97991.00
2023-09-21T07:50:27.439Z,97991.31
2023-09-21T07:52:58.068Z,97977.91
2023-09-21T07:55:24.979Z,97985.19
2023-09-21T07:57:52.295Z,97988.31
2023-09-21T08:00:19.864Z,97989.41
2023-09-21T08:02:47.045Z,97976.66
2023-09-21T08:05:14.569Z,97984.19
2023-09-21T08:07:42.205Z,97977.50
2023-09-21T08:10:16.962Z,97971.50
2023-09-21T08:12:44.016Z,97974.78
2023-09-21T08:15:12.490Z,97977.84
2023-09-21T08:17:40.095Z,97963.00
2023-09-21T08:20:11.253Z,97943.22
2023-09-21T08:22:38.796Z,97962.41
2023-09-21T08:25:09.546Z,97968.13
2023-09-21T08:27:36.682Z,97971.81
2023-09-21T08:30:05.876Z,97977.09
2023-09-21T08:32:34.413Z,97982.81
2023-09-21T08:35:02.898Z,97978.13
2023-09-21T08:37:31.023Z,97975.28
2023-09-21T08:39:58.004Z,97979.56
2023-09-21T08:42:26.931Z,97976.91
2023-09-21T08:44:54.859Z,97973.47
2023-09-21T08:47:34.087Z,97975.50
2023-09-21T08:50:06.028Z,97975.28
2023-09-21T08:52:34.275Z,97977.13
2023-09-21T08:55:04.695Z,97974.28
2023-09-21T08:57:32.696Z,97964.88
2023-09-21T09:00:10.225Z,97974.84
2023-09-21T09:02:37.417Z,97969.31
2023-09-21T09:05:09.281Z,97962.97
2023-09-21T09:07:42.916Z,97965.19
2023-09-21T09:10:11.625Z,97940.94
2023-09-21T09:13:25.162Z,97960.63
2023-09-21T09:15:52.072Z,97956.75
2023-09-21T09:18:19.217Z,97953.47
2023-09-21T09:20:46.412Z,97947.31
2023-09-21T09:23:14.570Z,97946.25
2023-09-21T09:25:44.252Z,97956.22
2023-09-21T09:28:11.401Z,97952.66
2023-09-21T09:30:38.586Z,97931.19
2023-09-21T09:33:10.917Z,97948.41
2023-09-21T09:35:42.745Z,97944.81
2023-09-21T09:38:10.361Z,97946.66
2023-09-21T09:40:41.314Z,97943.53
2023-09-21T09:43:14.375Z,97943.91
2023-09-21T09:45:44.196Z,97944.28
2023-09-21T09:48:17.596Z,97938.22
2023-09-21T09:50:51.724Z,97936.09
2023-09-21T09:53:21.178Z,97945.66
2023-09-21T09:55:48.216Z,97936.03
2023-09-21T09:58:17.140Z,97925.09
2023-09-21T10:00:46.629Z,97921.50
2023-09-21T10:03:14.103Z,97933.75
2023-09-21T10:05:42.354Z,97931.97
2023-09-21T10:08:10.013Z,97927.97
2023-09-21T10:10:57.319Z,97929.50
2023-09-21T10:13:28.229Z,97926.06
2023-09-21T10:16:05.167Z,97928.00
2023-09-21T10:18:36.968Z,97928.56
2023-09-21T10:21:32.592Z,97924.44
2023-09-21T10:24:15.291Z,97928.84
2023-09-21T10:26:51.291Z,97920.44
2023-09-21T10:29:30.251Z,97915.69
2023-09-21T10:32:01.713Z,97917.38
2023-09-21T10:34:30.343Z,97922.59
2023-09-21T10:37:07.952Z,97918.19
2023-09-21T10:39:35.233Z,97910.38
2023-09-21T10:42:05.458Z,97913.50
2023-09-21T10:44:58.120Z,97906.66
2023-09-21T10:47:34.280Z,97906.16
2023-09-21T10:50:04.134Z,97893.84
2023-09-21T10:52:32.122Z,97895.50
2023-09-21T10:54:59.316Z,97901.09
2023-09-21T10:57:30.759Z,97891.31
2023-09-21T11:00:13.449Z,97888.34
2023-09-21T11:02:41.752Z,97884.88
2023-09-21T11:05:11.747Z,97876.22
2023-09-21T11:07:41.301Z,97873.66
2023-09-21T11:10:13.246Z,97869.34
2023-09-21T11:12:46.635Z,97864.81
2023-09-21T11:15:18.794Z,97846.53
2023-09-21T11:17:47.499Z,97851.59
2023-09-21T11:20:19.462Z,97859.50
2023-09-21T11:22:49.895Z,97835.00
2023-09-21T11:25:22.239Z,97852.06
2023-09-21T11:27:50.851Z,97849.53
2023-09-21T11:30:29.994Z,97856.63
2023-09-21T11:32:58.904Z,97837.03
2023-09-21T11:35:27.114Z,97850.31
2023-09-21T11:37:54.090Z,97852.88
2023-09-21T11:40:24.694Z,97838.47
2023-09-21T11:42:56.831Z,97837.38
2023-09-21T11:45:25.882Z,97839.66
2023-09-21T11:48:00.260Z,97828.72
2023-09-21T11:50:34.088Z,97830.78
2023-09-21T11:53:07.520Z,97837.88
2023-09-21T11:55:35.171Z,97843.59
2023-09-21T11:58:15.935Z,97841.06
2023-09-21T12:00:52.656Z,97826.31
2023-09-21T12:03:26.065Z,97817.03
2023-09-21T12:05:57.401Z,97829.47
2023-09-21T12:08:26.757Z,97816.53
2023-09-21T12:10:55.005Z,97793.94
2023-09-21T12:13:23.182Z,97820.97
2023-09-21T12:15:54.014Z,97815.88
2023-09-21T12:18:22.894Z,97826.53
2023-09-21T12:20:51.280Z,97820.66
2023-09-21T12:23:19.391Z,97802.13
2023-09-21T12:25:47.041Z,97816.50
2023-09-21T12:28:14.166Z,97809.03
2023-09-21T12:30:44.005Z,97809.84
2023-09-21T12:33:34.762Z,97800.97
2023-09-21T12:36:06.937Z,97811.00
2023-09-21T12:38:40.916Z,97807.22
2023-09-21T12:41:11.210Z,97810.47
2023-09-21T12:43:39.641Z,97807.81
2023-09-21T12:46:09.651Z,97765.16
2023-09-21T12:48:39.871Z,97782.16
2023-09-21T12:53:34.110Z,97781.59
2023-09-21T12:56:00.996Z,97784.59
2023-09-21T12:58:27.848Z,97781.34
2023-09-21T13:00:54.929Z,97780.69
2023-09-21T13:03:22.012Z,97764.50
2023-09-21T13:05:49.039Z,97766.94
2023-09-21T13:08:17.449Z,97750.13
2023-09-21T13:10:47.153Z,97763.69
2023-09-21T13:13:17.315Z,97746.16
2023-09-21T13:15:44.118Z,97769.91
2023-09-21T13:18:12.193Z,97759.38
2023-09-21T13:20:39.348Z,97749.28
2023-09-21T13:23:07.019Z,97738.63
2023-09-21T13:25:33.805Z,97731.28
2023-09-21T13:28:00.517Z,97722.16
2023-09-21T13:30:27.914Z,97708.38
2023-09-21T13:32:54.893Z,97725.75
2023-09-21T13:35:23.311Z,97716.16
2023-09-21T13:37:50.899Z,97731.44
2023-09-21T13:40:17.771Z,97729.78
2023-09-21T13:42:44.672Z,97733.16
2023-09-21T13:45:18.253Z,97733.50
2023-09-21T13:47:45.610Z,97725.34
2023-09-21T13:50:12.583Z,97718.31
2023-09-21T13:52:39.460Z,97722.28
2023-09-21T13:57:41.748Z,97709.38
2023-09-21T14:00:11.185Z,97695.91
2023-09-21T14:02:39.261Z,97704.16
2023-09-21T14:05:07.753Z,97702.31
2023-09-21T14:07:34.745Z,97697.31
2023-09-21T14:10:02.357Z,97679.16
2023-09-21T14:12:29.747Z,97686.78
2023-09-21T14:14:57.549Z,97662.94
2023-09-21T14:17:24.333Z,97681.63
2023-09-21T14:19:54.709Z,97655.91
2023-09-21T14:22:23.966Z,97644.47
2023-09-21T14:24:52.713Z,97667.97
2023-09-21T14:27:19.685Z,97660.88
2023-09-21T14:29:47.282Z,97640.88
2023-09-21T14:32:14.072Z,97638.09
2023-09-21T14:34:41.026Z,97646.09
2023-09-21T14:37:11.167Z,97648.03
2023-09-21T14:39:37.969Z,97640.50
2023-09-21T14:42:05.244Z,97639.22
2023-09-21T14:44:32.201Z,97601.28
2023-09-21T14:46:58.937Z,97626.38
2023-09-21T14:49:28.857Z,97615.91
2023-09-21T14:51:56.898Z,97607.13
2023-09-21T14:54:27.795Z,97621.56
2023-09-21T14:56:55.313Z,97595.53
2023-09-21T14:59:22.228Z,97615.78
2023-09-21T15:01:50.297Z,97608.72
2023-09-21T15:04:17.726Z,97606.03
2023-09-21T15:06:44.738Z,97604.88
2023-09-21T15:09:11.601Z,97598.06
2023-09-21T15:11:41.707Z,97604.44
2023-09-21T15:14:08.488Z,97592.50
2023-09-21T15:16:36.122Z,97591.25
2023-09-21T15:19:04.001Z,97590.31
2023-09-21T15:21:32.278Z,97578.53
2023-09-21T15:24:00.332Z,97578.66
2023-09-21T15:26:28.119Z,97574.50
2023-09-21T15:28:54.896Z,97570.59
2023-09-21T15:31:44.869Z,97572.41
2023-09-21T15:34:12.218Z,97572.31
2023-09-21T15:36:42.309Z,97574.41
2023-09-21T15:39:10.235Z,97567.94
2023-09-21T15:41:37.636Z,97573.25
2023-09-21T15:44:04.702Z,97574.88
2023-09-21T15:46:31.793Z,97576.00
2023-09-21T15:48:58.840Z,97566.41
2023-09-21T15:51:25.731Z,97567.91
2023-09-21T15:53:55.554Z,97569.66
2023-09-21T15:56:22.383Z,97566.75
2023-09-21T15:58:49.389Z,97554.84
2023-09-21T16:01:19.416Z,97557.84
2023-09-21T16:03:46.439Z,97549.03
2023-09-21T16:06:13.470Z,97552.50
2023-09-21T16:08:41.188Z,97548.72
2023-09-21T16:11:08.004Z,97551.94
2023-09-21T16:13:34.805Z,97544.69
2023-09-21T16:16:01.986Z,97544.69
2023-09-21T16:18:28.979Z,97530.81
2023-09-21T16:20:55.857Z,97533.13
2023-09-21T16:23:22.785Z,97527.69
2023-09-21T16:25:49.542Z,97519.38
2023-09-21T16:28:16.428Z,97480.03
2023-09-21T16:30:43.277Z,97518.91
2023-09-21T16:33:10.221Z,97512.41
2023-09-21T16:35:39.150Z,97508.59
2023-09-21T16:38:09.186Z,97512.53
2023-09-21T16:40:39.818Z,97505.47
2023-09-21T16:43:06.589Z,97505.00
2023-09-21T16:45:36.783Z,97501.31
2023-09-21T16:48:06.430Z,97505.72
2023-09-21T16:50:37.381Z,97498.31
2023-09-21T16:53:04.801Z,97508.38
2023-09-21T16:55:32.233Z,97511.72
2023-09-21T16:57:59.064Z,97508.72
2023-09-21T17:00:29.105Z,97509.41
2023-09-21T17:03:14.140Z,97511.25
2023-09-21T17:05:41.553Z,97502.72
2023-09-21T17:08:10.142Z,97511.34
2023-09-21T17:10:38.171Z,97500.72
2023-09-21T17:13:04.983Z,97500.81
2023-09-21T17:15:35.968Z,97498.63
2023-09-21T17:18:02.856Z,97491.13
2023-09-21T17:20:31.136Z,97498.63
2023-09-21T17:22:57.977Z,97490.66
2023-09-21T17:25:24.792Z,97480.00
2023-09-21T17:27:52.611Z,97485.41
2023-09-21T17:30:19.629Z,97460.28
2023-09-21T17:32:46.609Z,97472.00
2023-09-21T17:35:13.522Z,97477.31
2023-09-21T17:37:40.381Z,97467.59
2023-09-21T17:40:11.284Z,97476.03
2023-09-21T17:42:38.381Z,97476.03
2023-09-21T17:45:05.860Z,97475.31
2023-09-21T17:47:35.865Z,97474.09
2023-09-21T17:50:02.774Z,97481.50
2023-09-21T17:52:30.183Z,97482.22
2023-09-21T17:55:01.832Z,97482.59
2023-09-21T17:57:29.194Z,97471.09
2023-09-21T17:59:55.986Z,97466.53
2023-09-21T18:02:23.128Z,97476.50
2023-09-21T18:04:50.400Z,97476.06
2023-09-21T18:07:17.472Z,97468.72
2023-09-21T18:09:44.308Z,97476.03
2023-09-21T18:12:11.249Z,97478.22
2023-09-21T18:14:38.082Z,97484.22
2023-09-21T18:17:05.021Z,97473.00
2023-09-21T18:19:33.784Z,97483.94
2023-09-21T18:22:00.878Z,97486.94
2023-09-21T18:24:28.712Z,97479.84
2023-09-21T18:26:55.648Z,97475.97
2023-09-21T18:29:22.845Z,97479.84
2023-09-21T18:31:49.744Z,97477.81
2023-09-21T18:34:16.818Z,97476.09
2023-09-21T18:36:43.966Z,97466.50
2023-09-21T18:39:14.018Z,97455.91
2023-09-21T18:41:42.077Z,97466.97
2023-09-21T18:44:08.896Z,97455.63
2023-09-21T18:46:36.444Z,97465.56
2023-09-21T18:49:05.115Z,97465.34
2023-09-21T18:51:32.281Z,97468.66
2023-09-21T18:53:59.108Z,97461.72
2023-09-21T18:56:29.600Z,97455.53
2023-09-21T18:58:57.585Z,97452.50
2023-09-21T19:01:25.342Z,97461.25
2023-09-21T19:03:53.091Z,97459.13
2023-09-21T19:06:23.706Z,97449.56
2023-09-21T19:08:50.554Z,97455.09
2023-09-21T19:11:18.185Z,97449.53
2023-09-21T19:13:45.998Z,97441.69
2023-09-21T19:16:13.973Z,97445.66
2023-09-21T19:18:41.494Z,97447.25
2023-09-21T19:21:09.771Z,97440.66
2023-09-21T19:23:37.208Z,97439.38
2023-09-21T19:26:08.244Z,97400.88
2023-09-21T19:28:35.370Z,97430.03
2023-09-21T19:31:02.413Z,97416.63
2023-09-21T19:33:29.457Z,97423.75
2023-09-21T19:36:00.741Z,97417.66
2023-09-21T19:38:28.411Z,97422.66
2023-09-21T19:40:55.373Z,97400.69
2023-09-21T19:43:22.409Z,97374.91
2023-09-21T19:45:49.189Z,97413.44
2023-09-21T19:48:16.218Z,97411.81
2023-09-21T19:50:43.690Z,97408.84
2023-09-21T19:53:11.805Z,97394.84
2023-09-21T19:55:39.021Z,97413.66
2023-09-21T19:58:05.919Z,97420.38
2023-09-21T20:00:32.842Z,97419.88
2023-09-21T20:02:59.918Z,97446.56
2023-09-21T20:05:26.875Z,97466.53
2023-09-21T20:07:53.631Z,97474.97
2023-09-21T20:10:20.544Z,97497.09
2023-09-21T20:12:48.529Z,97513.19
2023-09-21T20:15:15.428Z,97522.94
2023-09-21T20:17:42.209Z,97539.16
2023-09-21T20:20:09.165Z,97535.66
2023-09-21T20:22:35.933Z,97541.94
2023-09-21T20:25:02.828Z,97518.69
2023-09-21T20:27:29.700Z,97528.53
2023-09-21T20:29:56.981Z,97524.94
2023-09-21T20:32:23.729Z,97527.50
2023-09-21T20:34:50.477Z,97524.34
2023-09-21T20:37:21.651Z,97523.50
2023-09-21T20:39:49.413Z,97519.00
2023-09-21T20:42:16.348Z,97513.13
2023-09-21T20:44:44.142Z,97507.97
2023-09-21T20:47:11.617Z,97507.75
2023-09-21T20:49:38.707Z,97502.88
2023-09-21T20:52:05.763Z,97521.13
2023-09-21T20:54:32.569Z,97518.19
2023-09-21T20:56:59.311Z,97525.25
2023-09-21T20:59:26.303Z,97520.84
2023-09-21T21:01:53.163Z,97521.66
2023-09-21T21:04:19.987Z,97524.38
2023-09-21T21:06:47.446Z,97532.38
2023-09-21T21:09:14.267Z,97531.63
2023-09-21T21:11:41.446Z,97519.09
2023-09-21T21:14:08.738Z,97548.38
2023-09-21T21:16:35.563Z,97565.41
2023-09-21T21:19:02.439Z,97583.00
2023-09-21T21:21:29.581Z,97609.75
2023-09-21T21:24:01.134Z,97625.25
2023-09-21T21:26:28.136Z,97635.72
2023-09-21T21:28:54.905Z,97620.81
2023-09-21T21:31:21.646Z,97621.06
2023-09-21T21:33:48.574Z,97620.94
2023-09-21T21:36:15.576Z,97613.44
2023-09-21T21:38:42.428Z,97600.34
2023-09-21T21:41:09.197Z,97594.25
2023-09-21T21:43:37.566Z,97593.78
2023-09-21T21:46:05.580Z,97576.31
2023-09-21T21:48:32.534Z,97558.38
2023-09-21T21:50:59.320Z,97540.03
2023-09-21T21:53:26.104Z,97526.78
2023-09-21T21:55:53.196Z,97509.72
2023-09-21T21:58:19.967Z,97518.25
2023-09-21T22:00:49.230Z,97505.81
2023-09-21T22:03:17.190Z,97501.31
2023-09-21T22:05:45.106Z,97498.75
2023-09-21T22:08:12.453Z,97525.34
2023-09-21T22:10:39.692Z,97525.16
2023-09-21T22:13:06.979Z,97522.31
2023-09-21T22:15:37.448Z,97540.88
2023-09-21T22:18:06.693Z,97534.34
2023-09-21T22:20:34.862Z,97545.59
2023-09-21T22:23:02.393Z,97547.03
2023-09-21T22:25:29.295Z,97553.00
2023-09-21T22:27:56.149Z,97556.66
2023-09-21T22:30:23.040Z,97562.78
2023-09-21T22:32:49.830Z,97566.63
2023-09-21T22:35:17.008Z,97569.72
2023-09-21T22:37:44.032Z,97578.31
2023-09-21T22:40:12.724Z,97574.09
2023-09-21T22:42:48.795Z,97591.38
2023-09-21T22:45:17.600Z,97571.72
2023-09-21T22:47:45.191Z,97589.38
2023-09-21T22:50:17.731Z,97600.63
2023-09-21T22:52:49.054Z,97602.25
2023-09-21T22:55:20.732Z,97611.16
2023-09-21T22:57:48.003Z,97611.41
2023-09-21T23:00:18.215Z,97608.56
2023-09-21T23:02:46.254Z,97623.41
2023-09-21T23:05:13.561Z,97612.00
2023-09-21T23:07:41.692Z,97614.81
2023-09-21T23:10:15.725Z,97605.69
2023-09-21T23:12:42.991Z,97624.44
2023-09-21T23:15:14.187Z,97622.63
2023-09-21T23:17:45.146Z,97626.88
2023-09-21T23:20:21.169Z,97632.75
2023-09-21T23:22:50.892Z,97630.50
2023-09-21T23:25:19.526Z,97625.25
2023-09-21T23:27:46.551Z,97629.53
2023-09-21T23:30:13.768Z,97618.53
2023-09-21T23:32:43.153Z,97623.41
2023-09-21T23:35:13.309Z,97625.25
2023-09-21T23:37:41.345Z,97629.69
2023-09-21T23:40:10.058Z,97630.53
2023-09-21T23:42:38.207Z,97631.34
2023-09-21T23:45:11.963Z,97629.94
2023-09-21T23:47:41.419Z,97637.44
2023-09-21T23:50:11.137Z,97641.13
2023-09-21T23:52:49.484Z,97629.34
2023-09-21T23:55:17.125Z,97633.00
2023-09-21T23:57:44.412Z,97638.69
